Estación Meteorológica Peña el Pijo (Robertgarden) [ 10/16/18 04:12:58 CEST ]

Fecha Hora Presion(HPa) Temp (°C) Humedad % Rocio (°C) Viento ( m/s) Direccion Lluvia 1Hora(mm) Lluvia 24H(mm) LLuvia Total(mm)
2018-Feb-28 01:01:44 993.800 8.4 73 3.8       2.59 85.98
2018-Feb-28 02:08:05 993.100 8.6 72 3.8       2.59 85.98
2018-Feb-28 03:01:41 991.900 7.8 71 2.9       2.59 85.98
2018-Feb-28 04:01:50 991.100 7.0 73 2.5       2.59 85.98
2018-Feb-28 05:01:39 990.400 6.8 75 2.7       2.59 85.98
2018-Feb-28 06:01:40 990.100 9.1 63 2.4       2.59 85.98
2018-Feb-28 07:01:38 989.600 8.2 65 2.0       2.07 85.98
2018-Feb-28 08:01:34 989.400 8.5 64 2.1       1.03 85.98
2018-Feb-28 09:01:50 989.700 9.9 63 3.2       0.51 85.98
2018-Feb-28 10:01:41 989.700 13.1 56 4.5         85.98
2018-Feb-28 11:01:57 989.600 15.6 51 5.5         85.98
2018-Feb-28 12:02:25 989.400 15.8 49 5.1         85.98
2018-Feb-28 13:01:58 989.000 15.9 47 4.5 1.4 N     85.98
2018-Feb-28 14:01:44 988.300 14.9 48 4.0         85.98
2018-Feb-28 15:01:39 987.800 16.1 44 3.8 1.1 WNW     85.98
2018-Feb-28 16:01:49 988.200 14.2 51 4.2         85.98
2018-Feb-28 17:01:44 988.000 13.3 55 4.4 0.6 WNW     85.98
2018-Feb-28 18:01:44 986.400 11.9 57 3.6         85.98
2018-Feb-28 19:01:45 986.100 11.8 58 3.8 0.4 WNW     85.98
2018-Feb-28 20:01:43 986.400 10.9 65 4.5 3.1 WNW 0.51 0.51 86.50
2018-Feb-28 21:01:45 987.300 10.9 66 4.8     1.03 1.55 87.54
2018-Feb-28 22:01:46 987.100 10.7 66 4.6       1.55 87.54
2018-Feb-28 23:01:49 987.600 10.9 63 4.1 2.1 NW   1.55 87.54

Temperatura Máxima:16°    Temperatura Mínima:
Presión Máxima:993.800 Hpa    Presión Mínima:986.100 Hpa


Volver